createdAt,value
2023-07-20T00:01:54.305Z,10.98
2023-07-20T00:04:21.556Z,10.63
2023-07-20T00:06:48.447Z,10.32
2023-07-20T00:09:15.692Z,9.23
2023-07-20T00:11:50.108Z,9.55
2023-07-20T00:14:17.559Z,9.85
2023-07-20T00:16:44.504Z,9.60
2023-07-20T00:19:11.754Z,9.10
2023-07-20T00:21:41.499Z,9.88
2023-07-20T00:24:08.735Z,9.25
2023-07-20T00:26:35.703Z,10.63
2023-07-20T00:29:02.989Z,11.50
2023-07-20T00:31:30.528Z,11.77
2023-07-20T00:33:57.657Z,11.27
2023-07-20T00:36:24.810Z,10.52
2023-07-20T00:38:52.132Z,10.10
2023-07-20T00:41:18.990Z,11.93
2023-07-20T00:43:46.122Z,10.40
2023-07-20T00:46:13.377Z,10.88
2023-07-20T00:48:42.671Z,11.50
2023-07-20T00:51:10.365Z,12.07
2023-07-20T00:53:38.021Z,10.73
2023-07-20T00:56:06.244Z,9.93
2023-07-20T00:58:33.460Z,9.77
2023-07-20T01:01:00.316Z,8.95
2023-07-20T01:03:27.499Z,8.93
2023-07-20T01:06:12.993Z,8.18
2023-07-20T01:09:03.427Z,6.97
2023-07-20T01:11:40.286Z,7.70
2023-07-20T01:14:08.417Z,6.95
2023-07-20T01:16:35.522Z,7.50
2023-07-20T01:19:02.801Z,6.25
2023-07-20T01:21:35.816Z,6.22
2023-07-20T01:24:41.000Z,6.32
2023-07-20T01:27:26.498Z,6.65
2023-07-20T01:30:12.844Z,6.80
2023-07-20T01:32:43.165Z,6.28
2023-07-20T01:35:15.462Z,6.35
2023-07-20T01:37:45.730Z,6.05
2023-07-20T01:40:16.331Z,6.22
2023-07-20T01:42:48.456Z,6.28
2023-07-20T01:45:15.758Z,5.88
2023-07-20T01:47:42.691Z,6.15
2023-07-20T01:50:10.371Z,5.45
2023-07-20T01:52:37.444Z,6.32
2023-07-20T01:55:05.686Z,6.38
2023-07-20T01:57:33.141Z,4.97
2023-07-20T02:00:00.458Z,5.78
2023-07-20T02:02:29.506Z,5.53
2023-07-20T02:04:56.924Z,5.32
2023-07-20T02:07:23.827Z,5.72
2023-07-20T02:09:51.017Z,5.40
2023-07-20T02:12:17.939Z,5.55
2023-07-20T02:14:45.185Z,5.45
2023-07-20T02:17:12.231Z,5.30
2023-07-20T02:19:39.768Z,5.50
2023-07-20T02:22:07.608Z,5.63
2023-07-20T02:24:35.476Z,6.13
2023-07-20T02:27:02.363Z,5.80
2023-07-20T02:29:29.617Z,5.93
2023-07-20T02:31:56.461Z,6.65
2023-07-20T02:34:23.638Z,7.10
2023-07-20T02:36:51.044Z,5.93
2023-07-20T02:39:18.392Z,5.75
2023-07-20T02:41:45.357Z,5.85
2023-07-20T02:44:12.558Z,5.60
2023-07-20T02:46:39.518Z,5.78
2023-07-20T02:49:06.713Z,5.20
2023-07-20T02:51:33.777Z,6.10
2023-07-20T02:54:01.033Z,5.57
2023-07-20T02:56:28.381Z,5.50
2023-07-20T02:58:55.630Z,5.70
2023-07-20T03:01:22.609Z,5.70
2023-07-20T03:03:51.043Z,6.13
2023-07-20T03:06:18.241Z,5.80
2023-07-20T03:08:46.546Z,5.30
2023-07-20T03:11:13.490Z,5.90
2023-07-20T03:13:40.658Z,5.53
2023-07-20T03:16:12.427Z,5.88
2023-07-20T03:18:40.138Z,6.07
2023-07-20T03:21:12.775Z,5.80
2023-07-20T03:23:41.625Z,5.47
2023-07-20T03:26:09.559Z,6.30
2023-07-20T03:28:37.800Z,5.77
2023-07-20T03:31:05.529Z,6.00
2023-07-20T03:33:33.296Z,5.70
2023-07-20T03:36:00.272Z,5.82
2023-07-20T03:38:28.690Z,5.45
2023-07-20T03:40:57.877Z,5.05
2023-07-20T03:43:26.617Z,5.07
2023-07-20T03:45:54.273Z,5.40
2023-07-20T03:48:25.362Z,5.82
2023-07-20T03:50:53.718Z,4.72
2023-07-20T03:53:21.243Z,5.95
2023-07-20T03:55:49.949Z,5.55
2023-07-20T03:58:17.615Z,5.00
2023-07-20T04:00:49.656Z,4.97
2023-07-20T04:03:17.421Z,4.53
2023-07-20T04:05:45.628Z,5.00
2023-07-20T04:08:12.826Z,5.00
2023-07-20T04:10:40.269Z,4.82
2023-07-20T04:13:08.016Z,4.65
2023-07-20T04:15:35.070Z,4.60
2023-07-20T04:18:02.441Z,5.43
2023-07-20T04:20:29.538Z,4.32
2023-07-20T04:22:56.753Z,4.20
2023-07-20T04:25:23.711Z,4.55
2023-07-20T04:27:50.877Z,4.65
2023-07-20T04:30:21.411Z,4.82
2023-07-20T04:32:48.873Z,3.97
2023-07-20T04:35:39.874Z,4.40
2023-07-20T04:38:07.110Z,4.35
2023-07-20T04:40:33.959Z,4.82
2023-07-20T04:43:01.114Z,4.90
2023-07-20T04:45:27.945Z,4.55
2023-07-20T04:47:55.213Z,5.15
2023-07-20T04:50:22.265Z,5.43
2023-07-20T04:52:49.488Z,4.63
2023-07-20T04:55:16.463Z,4.40
2023-07-20T04:57:43.632Z,4.75
2023-07-20T05:00:12.771Z,4.50
2023-07-20T05:02:40.004Z,5.43
2023-07-20T05:05:07.338Z,6.55
2023-07-20T05:07:34.567Z,5.40
2023-07-20T05:10:01.837Z,5.65
2023-07-20T05:12:29.056Z,4.60
2023-07-20T05:14:56.052Z,4.80
2023-07-20T05:17:23.145Z,4.75
2023-07-20T05:19:50.108Z,4.90
2023-07-20T05:22:17.873Z,4.80
2023-07-20T05:24:44.957Z,5.45
2023-07-20T05:27:12.141Z,5.15
2023-07-20T05:29:39.012Z,5.72
2023-07-20T05:32:07.723Z,5.38
2023-07-20T05:34:34.604Z,5.60
2023-07-20T05:37:01.697Z,5.25
2023-07-20T05:39:28.558Z,5.60
2023-07-20T05:41:55.692Z,5.55
2023-07-20T05:44:22.544Z,5.80
2023-07-20T05:46:57.024Z,5.60
2023-07-20T05:49:25.123Z,5.10
2023-07-20T05:51:52.303Z,5.72
2023-07-20T05:54:19.419Z,6.57
2023-07-20T05:56:47.775Z,5.68
2023-07-20T05:59:14.698Z,6.00
2023-07-20T06:01:41.861Z,7.88
2023-07-20T06:04:08.830Z,5.13
2023-07-20T06:06:36.130Z,5.68
2023-07-20T06:09:08.826Z,5.57
2023-07-20T06:11:35.977Z,6.38
2023-07-20T06:14:02.860Z,5.88
2023-07-20T06:16:30.099Z,5.97
2023-07-20T06:18:57.414Z,6.75
2023-07-20T06:21:24.566Z,6.35
2023-07-20T06:23:51.450Z,6.50
2023-07-20T06:26:18.650Z,6.13
2023-07-20T06:28:45.573Z,7.03
2023-07-20T06:31:12.965Z,6.43
2023-07-20T06:33:39.853Z,6.25
2023-07-20T06:36:07.039Z,6.68
2023-07-20T06:38:33.887Z,6.60
2023-07-20T06:46:01.174Z,6.35
2023-07-20T06:48:28.168Z,6.00
2023-07-20T06:50:55.386Z,6.38
2023-07-20T06:53:22.254Z,6.07
2023-07-20T06:55:49.476Z,6.05
2023-07-20T06:58:16.496Z,6.30
2023-07-20T07:00:43.916Z,7.20
2023-07-20T07:03:10.880Z,6.72
2023-07-20T07:05:38.814Z,6.80
2023-07-20T07:08:06.663Z,6.10
2023-07-20T07:10:35.843Z,6.53
2023-07-20T07:13:03.314Z,6.82
2023-07-20T07:15:30.572Z,6.47
2023-07-20T07:17:57.982Z,6.15
2023-07-20T07:20:25.336Z,6.55
2023-07-20T07:22:53.172Z,6.30
2023-07-20T07:25:23.478Z,5.57
2023-07-20T07:27:52.644Z,5.90
2023-07-20T07:30:20.081Z,5.53
2023-07-20T07:32:47.200Z,6.20
2023-07-20T07:35:14.454Z,6.10
2023-07-20T07:37:52.345Z,5.65
2023-07-20T07:40:25.275Z,5.63
2023-07-20T07:42:54.693Z,5.70
2023-07-20T07:45:21.809Z,5.65
2023-07-20T07:47:48.739Z,6.07
2023-07-20T07:50:15.996Z,6.88
2023-07-20T07:52:42.961Z,6.75
2023-07-20T07:55:10.176Z,6.20
2023-07-20T07:57:37.232Z,5.70
2023-07-20T08:00:05.379Z,6.50
2023-07-20T08:02:33.120Z,5.88
2023-07-20T08:05:02.056Z,5.53
2023-07-20T08:07:29.553Z,5.63
2023-07-20T08:09:56.731Z,5.28
2023-07-20T08:12:23.906Z,5.38
2023-07-20T08:14:51.116Z,5.88
2023-07-20T08:17:18.876Z,5.68
2023-07-20T08:19:47.549Z,5.20
2023-07-20T08:22:14.654Z,5.47
2023-07-20T08:24:42.987Z,5.28
2023-07-20T08:27:10.596Z,5.32
2023-07-20T08:29:38.714Z,6.00
2023-07-20T08:32:07.297Z,5.35
2023-07-20T08:34:34.631Z,5.70
2023-07-20T08:37:01.451Z,5.45
2023-07-20T08:39:28.594Z,5.90
2023-07-20T08:41:56.902Z,4.95
2023-07-20T08:44:25.632Z,5.65
2023-07-20T08:46:53.683Z,5.55
2023-07-20T08:49:21.213Z,5.03
2023-07-20T08:51:49.763Z,5.00
2023-07-20T08:54:17.504Z,5.00
2023-07-20T08:56:46.862Z,5.78
2023-07-20T08:59:19.299Z,5.28
2023-07-20T09:01:47.464Z,5.35
2023-07-20T09:04:14.773Z,5.03
2023-07-20T09:06:45.770Z,5.13
2023-07-20T09:09:13.226Z,5.15
2023-07-20T09:11:41.856Z,4.97
2023-07-20T09:14:10.896Z,4.80
2023-07-20T09:16:54.433Z,5.50
2023-07-20T09:19:22.598Z,4.20
2023-07-20T09:21:51.260Z,4.80
2023-07-20T09:24:22.050Z,4.95
2023-07-20T09:26:51.367Z,4.80
2023-07-20T09:29:20.199Z,5.50
2023-07-20T09:32:03.648Z,5.10
2023-07-20T09:37:05.171Z,5.35
2023-07-20T09:39:33.306Z,5.50
2023-07-20T09:47:05.789Z,4.40
2023-07-20T09:50:26.138Z,5.25
2023-07-20T09:54:51.721Z,5.20
2023-07-20T09:57:19.197Z,4.95
2023-07-20T09:59:47.001Z,4.75
2023-07-20T10:02:28.775Z,4.82
2023-07-20T10:04:57.274Z,4.53
2023-07-20T10:07:28.558Z,4.50
2023-07-20T10:09:58.234Z,4.43
2023-07-20T10:12:27.757Z,4.28
2023-07-20T10:15:19.234Z,4.30
2023-07-20T10:18:25.770Z,4.30
2023-07-20T10:23:25.206Z,3.97
2023-07-20T10:25:52.451Z,4.40
2023-07-20T10:28:19.584Z,4.15
2023-07-20T10:30:47.847Z,4.50
2023-07-20T10:33:15.163Z,4.53
2023-07-20T10:35:55.827Z,3.97
2023-07-20T10:38:44.271Z,4.38
2023-07-20T10:43:49.767Z,3.63
2023-07-20T10:46:35.530Z,3.42
2023-07-20T10:49:07.167Z,3.47
2023-07-20T10:51:45.350Z,4.53
2023-07-20T10:54:18.212Z,3.58
2023-07-20T10:56:49.201Z,3.50
2023-07-20T10:59:42.378Z,3.65
2023-07-20T11:02:09.954Z,3.45
2023-07-20T11:04:44.432Z,3.38
2023-07-20T11:07:15.875Z,3.33
2023-07-20T11:09:43.971Z,2.65
2023-07-20T11:12:19.075Z,3.13
2023-07-20T11:14:57.446Z,3.30
2023-07-20T11:17:31.934Z,3.15
2023-07-20T11:22:32.774Z,2.53
2023-07-20T11:24:59.952Z,2.95
2023-07-20T11:27:28.235Z,3.00
2023-07-20T11:29:55.088Z,3.13
2023-07-20T11:32:23.959Z,2.75
2023-07-20T11:37:21.683Z,2.70
2023-07-20T11:39:49.441Z,3.20
2023-07-20T11:44:46.486Z,2.53
2023-07-20T11:47:14.006Z,2.92
2023-07-20T11:49:44.228Z,2.70
2023-07-20T11:52:14.692Z,2.70
2023-07-20T11:54:46.022Z,2.90
2023-07-20T11:57:19.148Z,3.13
2023-07-20T12:00:00.230Z,2.60
2023-07-20T12:02:31.262Z,2.50
2023-07-20T12:04:59.251Z,2.42
2023-07-20T12:07:28.761Z,2.50
2023-07-20T12:10:13.246Z,3.00
2023-07-20T12:12:42.487Z,2.65
2023-07-20T12:15:21.461Z,2.50
2023-07-20T12:17:53.630Z,2.47
2023-07-20T12:20:31.579Z,2.42
2023-07-20T12:23:19.002Z,2.60
2023-07-20T12:25:47.538Z,2.60
2023-07-20T12:28:16.920Z,2.33
2023-07-20T12:30:47.783Z,2.47
2023-07-20T12:33:18.710Z,2.90
2023-07-20T12:38:32.059Z,2.55
2023-07-20T12:40:59.662Z,2.95
2023-07-20T12:43:26.909Z,2.40
2023-07-20T12:45:54.259Z,2.97
2023-07-20T12:48:21.597Z,2.75
2023-07-20T12:50:48.551Z,2.50
2023-07-20T12:53:16.381Z,3.00
2023-07-20T12:55:43.476Z,3.05
2023-07-20T12:58:11.220Z,2.97
2023-07-20T13:00:38.203Z,2.65
2023-07-20T13:10:36.890Z,2.70
2023-07-20T13:13:04.201Z,2.58
2023-07-20T13:15:33.116Z,2.55
2023-07-20T13:18:00.775Z,2.67
2023-07-20T13:20:28.355Z,2.38
2023-07-20T13:22:55.591Z,2.70
2023-07-20T13:25:22.632Z,2.33
2023-07-20T13:27:49.816Z,2.53
2023-07-20T13:30:18.015Z,2.25
2023-07-20T13:32:45.967Z,2.60
2023-07-20T13:35:13.737Z,2.00
2023-07-20T13:37:41.539Z,2.00
2023-07-20T13:40:14.657Z,2.15
2023-07-20T13:42:42.069Z,2.10
2023-07-20T13:45:09.759Z,2.30
2023-07-20T13:47:37.758Z,2.30
2023-07-20T13:50:05.501Z,1.70
2023-07-20T13:55:05.337Z,2.38
2023-07-20T13:57:35.461Z,1.90
2023-07-20T14:00:10.311Z,1.80
2023-07-20T14:07:38.539Z,2.17
2023-07-20T14:12:36.149Z,2.40
2023-07-20T14:15:03.576Z,2.20
2023-07-20T14:17:32.850Z,1.90
2023-07-20T14:20:00.039Z,1.88
2023-07-20T14:22:27.523Z,1.65
2023-07-20T14:24:54.752Z,2.15
2023-07-20T14:27:23.557Z,2.33
2023-07-20T14:29:51.743Z,1.88
2023-07-20T14:32:18.865Z,1.90
2023-07-20T14:34:47.576Z,1.90
2023-07-20T14:37:15.208Z,1.98
2023-07-20T14:39:42.072Z,2.75
2023-07-20T14:42:10.101Z,2.08
2023-07-20T14:44:41.969Z,1.75
2023-07-20T14:47:15.015Z,2.97
2023-07-20T14:49:42.868Z,2.15
2023-07-20T14:54:39.971Z,2.13
2023-07-20T14:59:58.952Z,2.45
2023-07-20T15:02:26.483Z,2.20
2023-07-20T15:04:54.099Z,2.00
2023-07-20T15:07:25.271Z,2.20
2023-07-20T15:09:52.233Z,2.92
2023-07-20T15:12:19.417Z,2.17
2023-07-20T15:15:02.834Z,2.20
2023-07-20T15:17:29.996Z,2.22
2023-07-20T15:19:56.940Z,2.08
2023-07-20T15:22:24.622Z,1.80
2023-07-20T15:24:51.772Z,1.67
2023-07-20T15:27:19.037Z,1.40
2023-07-20T15:29:46.537Z,1.60
2023-07-20T15:32:13.731Z,1.80
2023-07-20T15:34:40.592Z,1.42
2023-07-20T15:37:07.766Z,1.40
2023-07-20T15:39:34.634Z,1.50
2023-07-20T15:42:01.771Z,1.58
2023-07-20T15:44:28.627Z,1.40
2023-07-20T15:46:56.055Z,1.50
2023-07-20T15:49:23.541Z,1.60
2023-07-20T15:51:50.678Z,1.75
2023-07-20T15:54:17.687Z,2.75
2023-07-20T15:59:16.504Z,2.45
2023-07-20T16:01:46.482Z,1.67
2023-07-20T16:04:15.806Z,1.90
2023-07-20T16:06:43.459Z,1.58
2023-07-20T16:09:10.273Z,1.50
2023-07-20T16:11:38.418Z,4.32
2023-07-20T16:14:08.078Z,4.68
2023-07-20T16:16:36.751Z,2.35
2023-07-20T16:19:04.246Z,2.30
2023-07-20T16:21:33.529Z,1.95
2023-07-20T16:24:01.308Z,1.90
2023-07-20T16:26:28.532Z,2.22
2023-07-20T16:31:25.816Z,2.33
2023-07-20T16:36:57.063Z,2.13
2023-07-20T16:44:21.496Z,2.10
2023-07-20T16:49:18.423Z,2.15
2023-07-20T16:51:45.571Z,2.45
2023-07-20T16:54:12.485Z,2.65
2023-07-20T16:56:41.502Z,2.50
2023-07-20T16:59:08.398Z,3.13
2023-07-20T17:01:35.553Z,3.30
2023-07-20T17:04:02.690Z,2.80
2023-07-20T17:06:29.915Z,2.33
2023-07-20T17:09:01.317Z,2.33
2023-07-20T17:11:28.946Z,2.72
2023-07-20T17:13:55.833Z,2.75
2023-07-20T17:16:22.737Z,2.80
2023-07-20T17:18:49.945Z,2.80
2023-07-20T17:21:17.507Z,3.60
2023-07-20T17:28:46.695Z,3.30
2023-07-20T17:33:41.295Z,3.30
2023-07-20T17:38:42.182Z,3.70
2023-07-20T17:43:37.349Z,3.50
2023-07-20T17:48:34.639Z,1.80
2023-07-20T17:51:02.328Z,1.70
2023-07-20T17:53:29.567Z,1.50
2023-07-20T17:55:56.728Z,1.70
2023-07-20T17:58:25.561Z,1.80
2023-07-20T18:00:54.028Z,1.70
2023-07-20T18:03:21.393Z,1.75
2023-07-20T18:05:48.338Z,1.95
2023-07-20T18:08:15.571Z,1.80
2023-07-20T18:10:42.430Z,1.70
2023-07-20T18:13:09.541Z,2.63
2023-07-20T18:15:36.490Z,3.10
2023-07-20T18:18:03.748Z,2.10
2023-07-20T18:20:30.704Z,1.98
2023-07-20T18:22:57.910Z,2.10
2023-07-20T18:25:24.745Z,2.13
2023-07-20T18:27:51.902Z,1.60
2023-07-20T18:30:19.902Z,1.77
2023-07-20T18:32:47.755Z,1.80
2023-07-20T18:35:14.687Z,1.70
2023-07-20T18:37:41.842Z,2.80
2023-07-20T18:40:09.391Z,2.40
2023-07-20T18:42:36.587Z,1.80
2023-07-20T18:45:05.641Z,2.22
2023-07-20T18:47:32.826Z,2.08
2023-07-20T18:49:59.818Z,2.55
2023-07-20T18:52:26.994Z,4.70
2023-07-20T18:54:53.881Z,4.85
2023-07-20T18:57:23.064Z,3.63
2023-07-20T18:59:52.411Z,3.85
2023-07-20T19:02:21.697Z,4.30
2023-07-20T19:04:48.683Z,3.65
2023-07-20T19:07:15.903Z,3.25
2023-07-20T19:09:42.740Z,3.40
2023-07-20T19:12:10.240Z,3.40
2023-07-20T19:14:37.200Z,3.75
2023-07-20T19:17:05.458Z,3.35
2023-07-20T19:19:32.788Z,3.25
2023-07-20T19:22:00.270Z,3.33
2023-07-20T19:24:27.241Z,5.20
2023-07-20T19:26:54.605Z,4.32
2023-07-20T19:29:21.633Z,4.40
2023-07-20T19:31:48.813Z,4.35
2023-07-20T19:34:15.637Z,3.90
2023-07-20T19:36:42.917Z,5.00
2023-07-20T19:39:10.148Z,7.40
2023-07-20T19:41:39.992Z,10.00
2023-07-20T19:44:10.551Z,8.35
2023-07-20T19:46:40.392Z,7.80
2023-07-20T19:49:07.454Z,7.30
2023-07-20T19:51:37.118Z,7.15
2023-07-20T19:56:35.637Z,8.25
2023-07-20T19:59:02.752Z,6.85
2023-07-20T20:06:29.736Z,6.00
2023-07-20T20:08:56.698Z,5.07
2023-07-20T20:11:25.074Z,5.22
2023-07-20T20:13:52.471Z,5.20
2023-07-20T20:16:20.699Z,5.60
2023-07-20T20:18:47.660Z,4.82
2023-07-20T20:21:15.567Z,5.15
2023-07-20T20:23:42.540Z,5.32
2023-07-20T20:26:09.724Z,4.97
2023-07-20T20:28:36.808Z,5.30
2023-07-20T20:31:05.270Z,4.60
2023-07-20T20:33:36.648Z,5.27
2023-07-20T20:36:06.840Z,5.32
2023-07-20T20:38:34.443Z,4.70
2023-07-20T20:41:03.566Z,4.45
2023-07-20T20:43:33.159Z,5.43
2023-07-20T20:46:03.884Z,4.72
2023-07-20T20:48:30.947Z,4.35
2023-07-20T20:51:00.795Z,5.78
2023-07-20T20:53:28.167Z,6.20
2023-07-20T20:55:55.315Z,6.78
2023-07-20T20:58:22.235Z,6.35
2023-07-20T21:00:50.459Z,7.55
2023-07-20T21:03:17.484Z,7.25
2023-07-20T21:05:44.730Z,6.97
2023-07-20T21:08:11.670Z,6.97
2023-07-20T21:10:44.224Z,5.80
2023-07-20T21:13:11.101Z,5.45
2023-07-20T21:15:41.780Z,4.22
2023-07-20T21:18:09.354Z,4.45
2023-07-20T21:20:36.728Z,4.20
2023-07-20T21:23:03.637Z,4.43
2023-07-20T21:25:30.870Z,4.35
2023-07-20T21:27:58.420Z,4.20
2023-07-20T21:30:29.655Z,4.00
2023-07-20T21:32:57.658Z,4.45
2023-07-20T21:35:25.067Z,4.53
2023-07-20T21:37:52.638Z,4.65
2023-07-20T21:40:20.122Z,4.80
2023-07-20T21:42:47.073Z,4.90
2023-07-20T21:45:14.488Z,5.00
2023-07-20T21:47:41.449Z,5.03
2023-07-20T21:50:09.059Z,5.18
2023-07-20T21:52:36.266Z,4.22
2023-07-20T21:55:05.016Z,4.43
2023-07-20T21:57:32.146Z,4.50
2023-07-20T21:59:59.337Z,4.18
2023-07-20T22:02:26.540Z,4.10
2023-07-20T22:04:55.115Z,4.40
2023-07-20T22:07:22.317Z,4.60
2023-07-20T22:09:49.561Z,4.35
2023-07-20T22:12:16.512Z,4.35
2023-07-20T22:14:43.875Z,5.03
2023-07-20T22:17:12.294Z,4.70
2023-07-20T22:19:39.483Z,5.38
2023-07-20T22:22:06.674Z,4.95
2023-07-20T22:24:34.407Z,4.55
2023-07-20T22:27:01.807Z,5.03
2023-07-20T22:29:32.160Z,5.28
2023-07-20T22:31:59.745Z,5.82
2023-07-20T22:34:34.086Z,5.63
2023-07-20T22:37:02.300Z,5.45
2023-07-20T22:39:33.017Z,5.10
2023-07-20T22:42:02.641Z,5.05
2023-07-20T22:44:30.656Z,5.57
2023-07-20T22:47:00.003Z,5.65
2023-07-20T22:49:27.318Z,5.55
2023-07-20T22:51:54.201Z,5.63
2023-07-20T22:54:21.576Z,5.80
2023-07-20T22:56:48.511Z,5.63
2023-07-20T22:59:15.630Z,5.43
2023-07-20T23:01:45.416Z,5.90
2023-07-20T23:04:13.442Z,5.93
2023-07-20T23:06:42.050Z,5.40
2023-07-20T23:09:10.366Z,5.70
2023-07-20T23:11:38.068Z,6.10
2023-07-20T23:14:05.491Z,5.57
2023-07-20T23:16:32.535Z,5.43
2023-07-20T23:19:00.443Z,6.07
2023-07-20T23:21:28.956Z,6.35
2023-07-20T23:23:56.565Z,6.03
2023-07-20T23:26:23.986Z,5.75
2023-07-20T23:28:53.709Z,6.20
2023-07-20T23:31:21.387Z,6.03
2023-07-20T23:33:48.642Z,5.80
2023-07-20T23:36:16.709Z,5.55
2023-07-20T23:38:45.846Z,5.70
2023-07-20T23:41:12.762Z,4.82
2023-07-20T23:43:40.173Z,5.40
2023-07-20T23:46:07.363Z,5.20
2023-07-20T23:48:47.803Z,5.38
2023-07-20T23:51:15.355Z,5.47
2023-07-20T23:53:43.199Z,5.25
2023-07-20T23:56:21.265Z,5.70
2023-07-20T23:58:48.758Z,5.32
